Accueil
METAR-TAF:

METAR-TAF

Aéroports :

Newquay Cornwall, Angleterre

Aéroport de Newquay Cornouailles

latitude: 50-26N, longitude: 005-00W, altitude: 119 m

Observation

Le bulletin a été fait il y a 31 minutes, à 09:50 UTC
Vent 4 kt de nord/nord-ouest, variant entre nord-ouest et nord/nord-est
Température 9°C
Humidité 81%
Pression 1019 hPa
Visibilité 10 km ou plus
Quelques nuages à une hauteur de 1500 ft
Nuages fragmentés à une hauteur de 3500 ft

METAR: EGHQ 280950Z 34004KT 320V020 9999 FEW015 BKN035 09/06 Q1019

Heure: 11:21 (10:21 UTC)

Prévision

Le bulletin a été fait il y a 2 heures et 22 minutes, à 07:59 UTC
Prévision valable du 28 à 09 UTC au 28 à 18 UTC
Vent 6 kt de nord
Visibilité 10 km ou plus
Nuages épars à une hauteur de 2500 ft

TAF: EGHQ 280759Z 2809/2818 35006KT 9999 SCT025

Observations et prévisions météorologiques de plus de 4000 aéroports (messages METAR et TAF).

Les stations disponibles sont représentées par des disques jaunes et rouges sur la carte.

Passer la souris dessus pour voir le nom de la station.

Cliquer dessus pour voir les observations et prévisions météorologiques.

Pour changer de carte: cliquez sur les boutons verts avec une croix noire pour zoomer, sur le bouton vert avec un tiret pour effectuer un zoom arrière, ou sur les flèches vertes pour les cartes adjacentes.


METAR-TAF: